sensor_id;sensor_type;location;lat;lon;timestamp;temperature;humidity
65378;SHT31;51982;51.042;13.806;2022-09-09T00:04:40;17.60;82.93
65378;SHT31;51982;51.042;13.806;2022-09-09T00:07:15;17.60;83.02
65378;SHT31;51982;51.042;13.806;2022-09-09T00:16:03;17.59;83.01
65378;SHT31;51982;51.042;13.806;2022-09-09T00:19:39;17.57;83.19
65378;SHT31;51982;51.042;13.806;2022-09-09T00:21:37;17.54;83.26
65378;SHT31;51982;51.042;13.806;2022-09-09T00:27:00;17.50;83.24
65378;SHT31;51982;51.042;13.806;2022-09-09T00:29:43;17.46;83.26
65378;SHT31;51982;51.042;13.806;2022-09-09T00:32:15;17.47;83.33
65378;SHT31;51982;51.042;13.806;2022-09-09T00:34:49;17.42;83.47
65378;SHT31;51982;51.042;13.806;2022-09-09T00:37:16;17.45;83.46
65378;SHT31;51982;51.042;13.806;2022-09-09T00:39:44;17.40;83.32
65378;SHT31;51982;51.042;13.806;2022-09-09T00:42:14;17.36;83.36
65378;SHT31;51982;51.042;13.806;2022-09-09T00:55:51;17.30;83.42
65378;SHT31;51982;51.042;13.806;2022-09-09T00:58:14;17.28;83.51
65378;SHT31;51982;51.042;13.806;2022-09-09T01:01:02;17.25;83.65
65378;SHT31;51982;51.042;13.806;2022-09-09T01:03:37;17.21;83.69
65378;SHT31;51982;51.042;13.806;2022-09-09T01:06:31;17.16;83.79
65378;SHT31;51982;51.042;13.806;2022-09-09T01:17:58;17.12;83.70
65378;SHT31;51982;51.042;13.806;2022-09-09T01:20:31;17.15;83.64
65378;SHT31;51982;51.042;13.806;2022-09-09T01:26:19;17.11;83.61
65378;SHT31;51982;51.042;13.806;2022-09-09T01:28:48;17.09;83.59
65378;SHT31;51982;51.042;13.806;2022-09-09T01:31:23;17.05;83.61
65378;SHT31;51982;51.042;13.806;2022-09-09T01:33:51;17.02;83.67
65378;SHT31;51982;51.042;13.806;2022-09-09T01:36:35;17.02;83.89
65378;SHT31;51982;51.042;13.806;2022-09-09T01:39:03;16.99;83.86
65378;SHT31;51982;51.042;13.806;2022-09-09T01:41:28;16.98;83.88
65378;SHT31;51982;51.042;13.806;2022-09-09T01:43:54;16.98;83.91
65378;SHT31;51982;51.042;13.806;2022-09-09T01:46:22;16.96;83.86
65378;SHT31;51982;51.042;13.806;2022-09-09T01:48:48;16.98;83.89
65378;SHT31;51982;51.042;13.806;2022-09-09T01:51:14;16.95;83.80
65378;SHT31;51982;51.042;13.806;2022-09-09T01:53:41;16.89;84.03
65378;SHT31;51982;51.042;13.806;2022-09-09T01:56:24;16.89;84.15
65378;SHT31;51982;51.042;13.806;2022-09-09T02:04:10;16.85;84.18
65378;SHT31;51982;51.042;13.806;2022-09-09T02:09:12;16.81;84.13
65378;SHT31;51982;51.042;13.806;2022-09-09T02:38:48;16.60;83.99
65378;SHT31;51982;51.042;13.806;2022-09-09T02:58:30;16.43;84.28
65378;SHT31;51982;51.042;13.806;2022-09-09T03:01:27;16.46;84.15
65378;SHT31;51982;51.042;13.806;2022-09-09T03:03:53;16.43;84.18
65378;SHT31;51982;51.042;13.806;2022-09-09T03:06:20;16.43;84.05
65378;SHT31;51982;51.042;13.806;2022-09-09T03:08:45;16.41;84.15
65378;SHT31;51982;51.042;13.806;2022-09-09T03:11:10;16.38;84.21
65378;SHT31;51982;51.042;13.806;2022-09-09T03:13:38;16.37;84.12
65378;SHT31;51982;51.042;13.806;2022-09-09T03:16:04;16.37;84.20
65378;SHT31;51982;51.042;13.806;2022-09-09T03:18:29;16.36;84.16
65378;SHT31;51982;51.042;13.806;2022-09-09T03:20:55;16.31;84.16
65378;SHT31;51982;51.042;13.806;2022-09-09T03:23:20;16.28;84.22
65378;SHT31;51982;51.042;13.806;2022-09-09T03:25:48;16.27;84.19
65378;SHT31;51982;51.042;13.806;2022-09-09T03:28:14;16.28;84.08
65378;SHT31;51982;51.042;13.806;2022-09-09T03:30:39;16.27;84.04
65378;SHT31;51982;51.042;13.806;2022-09-09T03:33:09;16.31;83.92
65378;SHT31;51982;51.042;13.806;2022-09-09T03:36:11;16.26;83.94
65378;SHT31;51982;51.042;13.806;2022-09-09T03:38:55;16.23;83.96
65378;SHT31;51982;51.042;13.806;2022-09-09T03:41:24;16.26;83.91
65378;SHT31;51982;51.042;13.806;2022-09-09T03:43:53;16.27;83.88
65378;SHT31;51982;51.042;13.806;2022-09-09T03:46:19;16.27;83.80
65378;SHT31;51982;51.042;13.806;2022-09-09T03:48:45;16.28;83.76
65378;SHT31;51982;51.042;13.806;2022-09-09T03:51:10;16.21;83.86
65378;SHT31;51982;51.042;13.806;2022-09-09T03:53:36;16.21;83.92
65378;SHT31;51982;51.042;13.806;2022-09-09T03:56:04;16.17;83.94
65378;SHT31;51982;51.042;13.806;2022-09-09T03:58:32;16.17;83.97
65378;SHT31;51982;51.042;13.806;2022-09-09T04:01:00;16.14;83.95
65378;SHT31;51982;51.042;13.806;2022-09-09T04:03:26;16.17;83.96
65378;SHT31;51982;51.042;13.806;2022-09-09T04:05:52;16.14;84.06
65378;SHT31;51982;51.042;13.806;2022-09-09T04:08:18;16.17;84.08
65378;SHT31;51982;51.042;13.806;2022-09-09T04:10:46;16.16;84.04
65378;SHT31;51982;51.042;13.806;2022-09-09T04:13:12;16.16;84.12
65378;SHT31;51982;51.042;13.806;2022-09-09T04:15:39;16.12;84.10
65378;SHT31;51982;51.042;13.806;2022-09-09T04:18:04;16.14;84.05
65378;SHT31;51982;51.042;13.806;2022-09-09T04:20:30;16.09;84.19
65378;SHT31;51982;51.042;13.806;2022-09-09T04:22:55;16.12;84.24
65378;SHT31;51982;51.042;13.806;2022-09-09T04:25:20;16.13;84.26
65378;SHT31;51982;51.042;13.806;2022-09-09T04:27:46;16.13;84.22
65378;SHT31;51982;51.042;13.806;2022-09-09T04:30:12;16.10;84.38
65378;SHT31;51982;51.042;13.806;2022-09-09T04:32:37;16.10;84.34
65378;SHT31;51982;51.042;13.806;2022-09-09T04:35:03;16.14;84.31
65378;SHT31;51982;51.042;13.806;2022-09-09T04:37:28;16.18;84.21
65378;SHT31;51982;51.042;13.806;2022-09-09T04:39:53;16.13;84.31
65378;SHT31;51982;51.042;13.806;2022-09-09T04:42:19;16.14;84.26
65378;SHT31;51982;51.042;13.806;2022-09-09T04:44:44;16.18;84.21
65378;SHT31;51982;51.042;13.806;2022-09-09T04:47:09;16.20;84.21
65378;SHT31;51982;51.042;13.806;2022-09-09T04:49:35;16.21;84.21
65378;SHT31;51982;51.042;13.806;2022-09-09T04:52:02;16.23;84.21
65378;SHT31;51982;51.042;13.806;2022-09-09T04:54:28;16.24;84.23
65378;SHT31;51982;51.042;13.806;2022-09-09T04:56:53;16.23;84.24
65378;SHT31;51982;51.042;13.806;2022-09-09T04:59:18;16.24;84.22
65378;SHT31;51982;51.042;13.806;2022-09-09T05:01:44;16.30;84.16
65378;SHT31;51982;51.042;13.806;2022-09-09T05:04:09;16.31;84.06
65378;SHT31;51982;51.042;13.806;2022-09-09T05:16:54;16.58;83.63
65378;SHT31;51982;51.042;13.806;2022-09-09T05:19:21;16.64;83.60
65378;SHT31;51982;51.042;13.806;2022-09-09T05:21:46;16.68;83.56
65378;SHT31;51982;51.042;13.806;2022-09-09T05:24:11;16.69;83.54
65378;SHT31;51982;51.042;13.806;2022-09-09T05:26:37;16.72;83.47
65378;SHT31;51982;51.042;13.806;2022-09-09T05:29:02;16.71;83.50
65378;SHT31;51982;51.042;13.806;2022-09-09T05:31:29;16.77;83.50
65378;SHT31;51982;51.042;13.806;2022-09-09T05:33:55;16.82;83.41
65378;SHT31;51982;51.042;13.806;2022-09-09T05:36:21;16.89;83.23
65378;SHT31;51982;51.042;13.806;2022-09-09T05:38:47;17.02;83.08
65378;SHT31;51982;51.042;13.806;2022-09-09T05:41:13;17.02;83.12
65378;SHT31;51982;51.042;13.806;2022-09-09T05:43:40;17.07;83.06
65378;SHT31;51982;51.042;13.806;2022-09-09T05:46:13;17.12;82.96
65378;SHT31;51982;51.042;13.806;2022-09-09T05:48:40;17.16;82.85
65378;SHT31;51982;51.042;13.806;2022-09-09T05:51:08;17.21;82.75
65378;SHT31;51982;51.042;13.806;2022-09-09T05:53:33;17.28;82.62
65378;SHT31;51982;51.042;13.806;2022-09-09T05:56:04;17.33;82.50
65378;SHT31;51982;51.042;13.806;2022-09-09T05:58:31;17.35;82.54
65378;SHT31;51982;51.042;13.806;2022-09-09T06:01:01;17.42;82.48
65378;SHT31;51982;51.042;13.806;2022-09-09T06:03:26;17.46;82.40
65378;SHT31;51982;51.042;13.806;2022-09-09T06:05:59;17.49;82.14
65378;SHT31;51982;51.042;13.806;2022-09-09T06:08:25;17.56;82.20
65378;SHT31;51982;51.042;13.806;2022-09-09T06:10:50;17.63;82.19
65378;SHT31;51982;51.042;13.806;2022-09-09T06:13:16;17.74;82.03
65378;SHT31;51982;51.042;13.806;2022-09-09T06:15:51;17.77;81.73
65378;SHT31;51982;51.042;13.806;2022-09-09T06:18:18;17.84;81.81
65378;SHT31;51982;51.042;13.806;2022-09-09T06:20:56;17.93;81.53
65378;SHT31;51982;51.042;13.806;2022-09-09T06:23:21;18.76;80.13
65378;SHT31;51982;51.042;13.806;2022-09-09T06:25:46;21.41;74.36
65378;SHT31;51982;51.042;13.806;2022-09-09T06:28:12;22.05;71.65
65378;SHT31;51982;51.042;13.806;2022-09-09T06:30:38;20.42;75.49
65378;SHT31;51982;51.042;13.806;2022-09-09T06:33:04;19.63;77.48
65378;SHT31;51982;51.042;13.806;2022-09-09T06:35:30;19.20;78.69
65378;SHT31;51982;51.042;13.806;2022-09-09T06:37:55;18.98;79.19
65378;SHT31;51982;51.042;13.806;2022-09-09T06:40:20;18.92;79.60
65378;SHT31;51982;51.042;13.806;2022-09-09T06:42:45;18.85;79.66
65378;SHT31;51982;51.042;13.806;2022-09-09T06:45:11;18.79;79.83
65378;SHT31;51982;51.042;13.806;2022-09-09T06:47:36;18.82;79.85
65378;SHT31;51982;51.042;13.806;2022-09-09T06:50:01;18.89;79.90
65378;SHT31;51982;51.042;13.806;2022-09-09T06:52:26;18.98;79.91
65378;SHT31;51982;51.042;13.806;2022-09-09T06:54:52;19.13;79.69
65378;SHT31;51982;51.042;13.806;2022-09-09T06:57:18;19.23;79.45
65378;SHT31;51982;51.042;13.806;2022-09-09T06:59:43;19.33;79.38
65378;SHT31;51982;51.042;13.806;2022-09-09T07:02:09;19.46;79.24
65378;SHT31;51982;51.042;13.806;2022-09-09T07:04:34;19.43;78.94
65378;SHT31;51982;51.042;13.806;2022-09-09T07:07:00;19.46;78.84
65378;SHT31;51982;51.042;13.806;2022-09-09T07:09:25;19.54;78.67
65378;SHT31;51982;51.042;13.806;2022-09-09T07:11:52;19.61;78.83
65378;SHT31;51982;51.042;13.806;2022-09-09T07:14:18;19.60;78.57
65378;SHT31;51982;51.042;13.806;2022-09-09T07:16:44;19.56;78.65
65378;SHT31;51982;51.042;13.806;2022-09-09T07:19:11;19.56;78.83
65378;SHT31;51982;51.042;13.806;2022-09-09T07:21:38;19.54;78.69
65378;SHT31;51982;51.042;13.806;2022-09-09T07:24:05;19.47;78.85
65378;SHT31;51982;51.042;13.806;2022-09-09T07:26:33;19.45;78.92
65378;SHT31;51982;51.042;13.806;2022-09-09T07:28:58;19.54;78.61
65378;SHT31;51982;51.042;13.806;2022-09-09T07:31:26;19.53;78.47
65378;SHT31;51982;51.042;13.806;2022-09-09T07:33:51;19.68;78.24
65378;SHT31;51982;51.042;13.806;2022-09-09T07:36:28;19.88;77.12
65378;SHT31;51982;51.042;13.806;2022-09-09T07:38:59;20.02;77.31
65378;SHT31;51982;51.042;13.806;2022-09-09T07:41:33;20.05;76.66
65378;SHT31;51982;51.042;13.806;2022-09-09T07:44:04;19.98;77.11
65378;SHT31;51982;51.042;13.806;2022-09-09T07:46:29;19.87;77.26
65378;SHT31;51982;51.042;13.806;2022-09-09T07:48:57;19.82;77.18
65378;SHT31;51982;51.042;13.806;2022-09-09T07:51:35;19.79;76.83
65378;SHT31;51982;51.042;13.806;2022-09-09T07:54:04;19.91;77.10
65378;SHT31;51982;51.042;13.806;2022-09-09T07:56:30;20.15;76.88
65378;SHT31;51982;51.042;13.806;2022-09-09T07:58:57;20.19;76.90
65378;SHT31;51982;51.042;13.806;2022-09-09T08:01:32;20.08;76.50
65378;SHT31;51982;51.042;13.806;2022-09-09T08:03:58;19.97;76.96
65378;SHT31;51982;51.042;13.806;2022-09-09T08:06:27;20.01;77.52
65378;SHT31;51982;51.042;13.806;2022-09-09T08:08:53;20.15;77.25
65378;SHT31;51982;51.042;13.806;2022-09-09T08:11:21;20.35;77.19
65378;SHT31;51982;51.042;13.806;2022-09-09T08:13:49;20.55;76.95
65378;SHT31;51982;51.042;13.806;2022-09-09T08:16:20;20.76;76.30
65378;SHT31;51982;51.042;13.806;2022-09-09T08:18:49;20.84;76.30
65378;SHT31;51982;51.042;13.806;2022-09-09T08:21:23;20.83;76.53
65378;SHT31;51982;51.042;13.806;2022-09-09T08:23:50;20.82;76.78
65378;SHT31;51982;51.042;13.806;2022-09-09T08:26:19;20.80;77.85
65378;SHT31;51982;51.042;13.806;2022-09-09T08:28:46;20.76;79.01
65378;SHT31;51982;51.042;13.806;2022-09-09T08:31:14;20.76;79.49
65378;SHT31;51982;51.042;13.806;2022-09-09T08:33:40;20.84;79.25
65378;SHT31;51982;51.042;13.806;2022-09-09T08:36:08;21.04;78.97
65378;SHT31;51982;51.042;13.806;2022-09-09T08:38:34;21.20;78.71
65378;SHT31;51982;51.042;13.806;2022-09-09T08:44:10;21.44;77.45
65378;SHT31;51982;51.042;13.806;2022-09-09T08:46:56;21.40;78.25
65378;SHT31;51982;51.042;13.806;2022-09-09T08:49:46;21.27;77.89
65378;SHT31;51982;51.042;13.806;2022-09-09T08:52:16;21.27;78.78
65378;SHT31;51982;51.042;13.806;2022-09-09T08:54:43;21.37;78.60
65378;SHT31;51982;51.042;13.806;2022-09-09T08:57:14;21.48;78.16
65378;SHT31;51982;51.042;13.806;2022-09-09T08:59:43;21.61;77.96
65378;SHT31;51982;51.042;13.806;2022-09-09T09:02:17;21.66;77.57
65378;SHT31;51982;51.042;13.806;2022-09-09T09:04:58;21.69;77.63
65378;SHT31;51982;51.042;13.806;2022-09-09T09:07:49;21.74;77.27
65378;SHT31;51982;51.042;13.806;2022-09-09T09:10:30;21.72;77.67
65378;SHT31;51982;51.042;13.806;2022-09-09T09:12:57;21.69;77.99
65378;SHT31;51982;51.042;13.806;2022-09-09T09:15:25;21.58;78.08
65378;SHT31;51982;51.042;13.806;2022-09-09T09:17:51;21.59;78.13
65378;SHT31;51982;51.042;13.806;2022-09-09T09:20:19;21.64;78.10
65378;SHT31;51982;51.042;13.806;2022-09-09T09:22:49;21.62;78.19
65378;SHT31;51982;51.042;13.806;2022-09-09T09:25:21;21.55;79.04
65378;SHT31;51982;51.042;13.806;2022-09-09T09:27:58;21.44;79.55
65378;SHT31;51982;51.042;13.806;2022-09-09T09:30:29;21.27;81.19
65378;SHT31;51982;51.042;13.806;2022-09-09T09:33:03;21.03;82.39
65378;SHT31;51982;51.042;13.806;2022-09-09T09:35:30;20.80;82.85
65378;SHT31;51982;51.042;13.806;2022-09-09T09:37:55;20.70;83.43
65378;SHT31;51982;51.042;13.806;2022-09-09T09:40:22;20.65;84.25
65378;SHT31;51982;51.042;13.806;2022-09-09T09:42:56;20.68;84.51
65378;SHT31;51982;51.042;13.806;2022-09-09T09:45:41;20.69;83.91
65378;SHT31;51982;51.042;13.806;2022-09-09T09:48:11;20.73;85.14
65378;SHT31;51982;51.042;13.806;2022-09-09T09:50:54;20.73;84.95
65378;SHT31;51982;51.042;13.806;2022-09-09T09:53:32;20.79;85.49
65378;SHT31;51982;51.042;13.806;2022-09-09T09:56:00;20.90;85.60
65378;SHT31;51982;51.042;13.806;2022-09-09T09:58:38;21.03;85.27
65378;SHT31;51982;51.042;13.806;2022-09-09T10:01:26;21.20;84.50
65378;SHT31;51982;51.042;13.806;2022-09-09T10:03:55;21.30;85.40
65378;SHT31;51982;51.042;13.806;2022-09-09T10:06:32;21.14;83.89
65378;SHT31;51982;51.042;13.806;2022-09-09T10:08:58;21.06;84.91
65378;SHT31;51982;51.042;13.806;2022-09-09T10:11:30;21.00;84.91
65378;SHT31;51982;51.042;13.806;2022-09-09T10:14:15;20.97;83.75
65378;SHT31;51982;51.042;13.806;2022-09-09T10:19:16;20.92;85.17
65378;SHT31;51982;51.042;13.806;2022-09-09T10:21:56;20.90;82.52
65378;SHT31;51982;51.042;13.806;2022-09-09T10:27:49;20.89;83.25
65378;SHT31;51982;51.042;13.806;2022-09-09T10:30:19;20.87;83.86
65378;SHT31;51982;51.042;13.806;2022-09-09T10:32:56;20.89;83.06
65378;SHT31;51982;51.042;13.806;2022-09-09T10:35:29;20.90;82.01
65378;SHT31;51982;51.042;13.806;2022-09-09T10:38:14;20.92;81.02
65378;SHT31;51982;51.042;13.806;2022-09-09T10:40:47;20.97;81.42
65378;SHT31;51982;51.042;13.806;2022-09-09T10:49:13;21.07;80.13
65378;SHT31;51982;51.042;13.806;2022-09-09T10:51:56;21.08;80.68
65378;SHT31;51982;51.042;13.806;2022-09-09T10:54:41;21.19;81.15
65378;SHT31;51982;51.042;13.806;2022-09-09T10:57:13;21.26;81.53
65378;SHT31;51982;51.042;13.806;2022-09-09T10:59:45;21.31;81.25
65378;SHT31;51982;51.042;13.806;2022-09-09T11:02:21;21.41;80.25
65378;SHT31;51982;51.042;13.806;2022-09-09T11:04:57;21.40;78.10
65378;SHT31;51982;51.042;13.806;2022-09-09T11:10:02;21.48;78.95
65378;SHT31;51982;51.042;13.806;2022-09-09T11:12:34;21.48;78.92
65378;SHT31;51982;51.042;13.806;2022-09-09T11:15:06;21.52;77.89
65378;SHT31;51982;51.042;13.806;2022-09-09T11:17:47;21.52;75.92
65378;SHT31;51982;51.042;13.806;2022-09-09T11:20:14;21.59;77.26
65378;SHT31;51982;51.042;13.806;2022-09-09T11:22:46;21.65;76.19
65378;SHT31;51982;51.042;13.806;2022-09-09T11:25:35;21.68;75.94
65378;SHT31;51982;51.042;13.806;2022-09-09T11:31:17;21.57;80.34
65378;SHT31;51982;51.042;13.806;2022-09-09T11:34:21;21.55;82.31
65378;SHT31;51982;51.042;13.806;2022-09-09T11:42:06;22.13;83.19
65378;SHT31;51982;51.042;13.806;2022-09-09T11:44:31;22.09;83.54
65378;SHT31;51982;51.042;13.806;2022-09-09T11:46:57;22.12;83.07
65378;SHT31;51982;51.042;13.806;2022-09-09T11:49:28;22.12;82.36
65378;SHT31;51982;51.042;13.806;2022-09-09T11:51:55;22.10;82.51
65378;SHT31;51982;51.042;13.806;2022-09-09T11:54:46;22.19;81.40
65378;SHT31;51982;51.042;13.806;2022-09-09T11:57:24;22.15;81.59
65378;SHT31;51982;51.042;13.806;2022-09-09T11:59:51;22.17;81.55
65378;SHT31;51982;51.042;13.806;2022-09-09T12:02:28;22.26;80.34
65378;SHT31;51982;51.042;13.806;2022-09-09T12:05:02;22.37;80.92
65378;SHT31;51982;51.042;13.806;2022-09-09T12:12:37;22.81;79.58
65378;SHT31;51982;51.042;13.806;2022-09-09T12:17:44;22.73;77.77
65378;SHT31;51982;51.042;13.806;2022-09-09T12:20:17;22.60;77.64
65378;SHT31;51982;51.042;13.806;2022-09-09T12:23:14;22.47;75.61
65378;SHT31;51982;51.042;13.806;2022-09-09T12:28:54;22.47;76.18
65378;SHT31;51982;51.042;13.806;2022-09-09T12:31:32;22.49;75.85
65378;SHT31;51982;51.042;13.806;2022-09-09T12:34:09;22.52;75.46
65378;SHT31;51982;51.042;13.806;2022-09-09T12:36:35;22.56;76.85
65378;SHT31;51982;51.042;13.806;2022-09-09T12:39:10;22.56;75.49
65378;SHT31;51982;51.042;13.806;2022-09-09T12:41:40;22.55;76.05
65378;SHT31;51982;51.042;13.806;2022-09-09T12:44:08;22.53;76.21
65378;SHT31;51982;51.042;13.806;2022-09-09T12:46:45;22.63;75.83
65378;SHT31;51982;51.042;13.806;2022-09-09T12:49:40;22.78;74.34
65378;SHT31;51982;51.042;13.806;2022-09-09T12:52:27;22.80;75.22
65378;SHT31;51982;51.042;13.806;2022-09-09T12:54:55;22.78;75.69
65378;SHT31;51982;51.042;13.806;2022-09-09T12:57:23;22.81;74.88
65378;SHT31;51982;51.042;13.806;2022-09-09T13:00:04;22.81;74.11
65378;SHT31;51982;51.042;13.806;2022-09-09T13:02:30;22.80;74.14
65378;SHT31;51982;51.042;13.806;2022-09-09T13:05:06;22.94;73.30
65378;SHT31;51982;51.042;13.806;2022-09-09T13:07:32;23.12;73.77
65378;SHT31;51982;51.042;13.806;2022-09-09T13:09:57;23.24;73.39
65378;SHT31;51982;51.042;13.806;2022-09-09T13:12:22;23.25;73.62
65378;SHT31;51982;51.042;13.806;2022-09-09T13:14:54;23.06;73.50
65378;SHT31;51982;51.042;13.806;2022-09-09T13:17:23;22.91;73.89
65378;SHT31;51982;51.042;13.806;2022-09-09T13:19:49;22.94;73.70
65378;SHT31;51982;51.042;13.806;2022-09-09T13:22:27;23.03;72.89
65378;SHT31;51982;51.042;13.806;2022-09-09T13:25:17;23.04;72.65
65378;SHT31;51982;51.042;13.806;2022-09-09T13:27:54;22.97;73.22
65378;SHT31;51982;51.042;13.806;2022-09-09T13:30:22;22.88;73.24
65378;SHT31;51982;51.042;13.806;2022-09-09T13:35:55;22.90;72.78
65378;SHT31;51982;51.042;13.806;2022-09-09T13:38:21;22.94;73.09
65378;SHT31;51982;51.042;13.806;2022-09-09T13:40:56;23.06;72.77
65378;SHT31;51982;51.042;13.806;2022-09-09T13:43:23;23.17;72.63
65378;SHT31;51982;51.042;13.806;2022-09-09T13:45:54;23.07;73.13
65378;SHT31;51982;51.042;13.806;2022-09-09T13:48:21;23.01;72.87
65378;SHT31;51982;51.042;13.806;2022-09-09T13:51:03;22.93;71.82
65378;SHT31;51982;51.042;13.806;2022-09-09T13:53:32;22.83;72.75
65378;SHT31;51982;51.042;13.806;2022-09-09T13:55:58;22.77;72.64
65378;SHT31;51982;51.042;13.806;2022-09-09T13:58:24;22.77;71.96
65378;SHT31;51982;51.042;13.806;2022-09-09T14:00:51;22.80;71.66
65378;SHT31;51982;51.042;13.806;2022-09-09T14:03:17;22.86;71.13
65378;SHT31;51982;51.042;13.806;2022-09-09T14:05:44;22.84;71.73
65378;SHT31;51982;51.042;13.806;2022-09-09T14:08:15;22.81;71.89
65378;SHT31;51982;51.042;13.806;2022-09-09T14:10:41;22.81;71.44
65378;SHT31;51982;51.042;13.806;2022-09-09T14:13:06;22.81;71.50
65378;SHT31;51982;51.042;13.806;2022-09-09T14:15:33;22.86;71.60
65378;SHT31;51982;51.042;13.806;2022-09-09T14:17:58;22.90;71.64
65378;SHT31;51982;51.042;13.806;2022-09-09T14:20:24;22.97;72.14
65378;SHT31;51982;51.042;13.806;2022-09-09T14:22:49;23.06;72.38
65378;SHT31;51982;51.042;13.806;2022-09-09T14:25:14;23.18;72.15
65378;SHT31;51982;51.042;13.806;2022-09-09T14:27:40;23.25;71.79
65378;SHT31;51982;51.042;13.806;2022-09-09T14:30:06;23.37;71.46
65378;SHT31;51982;51.042;13.806;2022-09-09T14:32:32;23.44;71.10
65378;SHT31;51982;51.042;13.806;2022-09-09T14:34:58;23.52;71.02
65378;SHT31;51982;51.042;13.806;2022-09-09T14:37:27;23.59;71.19
65378;SHT31;51982;51.042;13.806;2022-09-09T14:39:52;23.62;70.33
65378;SHT31;51982;51.042;13.806;2022-09-09T14:42:19;23.65;70.32
65378;SHT31;51982;51.042;13.806;2022-09-09T14:44:44;23.65;69.91
65378;SHT31;51982;51.042;13.806;2022-09-09T14:47:09;23.61;69.39
65378;SHT31;51982;51.042;13.806;2022-09-09T14:49:35;23.62;69.31
65378;SHT31;51982;51.042;13.806;2022-09-09T14:52:01;23.63;69.36
65378;SHT31;51982;51.042;13.806;2022-09-09T14:54:26;23.62;69.34
65378;SHT31;51982;51.042;13.806;2022-09-09T14:56:53;23.63;69.54
65378;SHT31;51982;51.042;13.806;2022-09-09T14:59:18;23.57;69.71
65378;SHT31;51982;51.042;13.806;2022-09-09T15:01:43;23.51;69.58
65378;SHT31;51982;51.042;13.806;2022-09-09T15:04:11;23.44;69.86
65378;SHT31;51982;51.042;13.806;2022-09-09T15:06:37;23.39;70.00
65378;SHT31;51982;51.042;13.806;2022-09-09T15:09:04;23.34;70.34
65378;SHT31;51982;51.042;13.806;2022-09-09T15:11:32;23.32;70.59
65378;SHT31;51982;51.042;13.806;2022-09-09T15:13:59;23.34;70.74
65378;SHT31;51982;51.042;13.806;2022-09-09T15:16:26;23.38;70.94
65378;SHT31;51982;51.042;13.806;2022-09-09T15:18:54;23.39;70.83
65378;SHT31;51982;51.042;13.806;2022-09-09T15:21:21;23.42;71.13
65378;SHT31;51982;51.042;13.806;2022-09-09T15:23:47;23.38;71.07
65378;SHT31;51982;51.042;13.806;2022-09-09T15:26:13;23.39;71.32
65378;SHT31;51982;51.042;13.806;2022-09-09T15:28:43;23.38;71.59
65378;SHT31;51982;51.042;13.806;2022-09-09T15:36:14;23.29;73.24
65378;SHT31;51982;51.042;13.806;2022-09-09T15:38:40;23.19;73.82
65378;SHT31;51982;51.042;13.806;2022-09-09T15:41:05;23.17;73.97
65378;SHT31;51982;51.042;13.806;2022-09-09T15:43:30;23.11;73.93
65378;SHT31;51982;51.042;13.806;2022-09-09T15:45:59;23.08;73.60
65378;SHT31;51982;51.042;13.806;2022-09-09T15:48:30;23.03;73.92
65378;SHT31;51982;51.042;13.806;2022-09-09T15:51:03;22.93;74.00
65378;SHT31;51982;51.042;13.806;2022-09-09T15:53:29;22.90;74.11
65378;SHT31;51982;51.042;13.806;2022-09-09T15:55:57;22.86;74.14
65378;SHT31;51982;51.042;13.806;2022-09-09T15:58:22;22.81;74.06
65378;SHT31;51982;51.042;13.806;2022-09-09T16:00:47;22.77;73.99
65378;SHT31;51982;51.042;13.806;2022-09-09T16:03:13;22.76;73.81
65378;SHT31;51982;51.042;13.806;2022-09-09T16:05:38;22.78;73.69
65378;SHT31;51982;51.042;13.806;2022-09-09T16:08:03;22.77;73.56
65378;SHT31;51982;51.042;13.806;2022-09-09T16:10:29;22.71;73.89
65378;SHT31;51982;51.042;13.806;2022-09-09T16:12:55;22.73;73.93
65378;SHT31;51982;51.042;13.806;2022-09-09T16:15:21;22.70;73.86
65378;SHT31;51982;51.042;13.806;2022-09-09T16:17:48;22.67;73.74
65378;SHT31;51982;51.042;13.806;2022-09-09T16:20:13;22.70;73.78
65378;SHT31;51982;51.042;13.806;2022-09-09T16:22:39;22.66;73.92
65378;SHT31;51982;51.042;13.806;2022-09-09T16:25:05;22.60;73.97
65378;SHT31;51982;51.042;13.806;2022-09-09T16:27:31;22.57;74.27
65378;SHT31;51982;51.042;13.806;2022-09-09T16:29:56;22.49;74.38
65378;SHT31;51982;51.042;13.806;2022-09-09T16:32:22;22.43;74.49
65378;SHT31;51982;51.042;13.806;2022-09-09T16:34:49;22.36;74.44
65378;SHT31;51982;51.042;13.806;2022-09-09T16:37:15;22.29;74.45
65378;SHT31;51982;51.042;13.806;2022-09-09T16:39:40;22.19;74.66
65378;SHT31;51982;51.042;13.806;2022-09-09T16:42:05;22.17;74.63
65378;SHT31;51982;51.042;13.806;2022-09-09T16:44:30;22.13;74.71
65378;SHT31;51982;51.042;13.806;2022-09-09T16:46:56;22.17;74.65
65378;SHT31;51982;51.042;13.806;2022-09-09T16:49:21;22.10;74.79
65378;SHT31;51982;51.042;13.806;2022-09-09T16:51:48;22.08;74.67
65378;SHT31;51982;51.042;13.806;2022-09-09T16:54:14;22.10;74.78
65378;SHT31;51982;51.042;13.806;2022-09-09T16:56:43;22.09;74.91
65378;SHT31;51982;51.042;13.806;2022-09-09T16:59:17;22.09;74.75
65378;SHT31;51982;51.042;13.806;2022-09-09T17:01:44;22.08;74.99
65378;SHT31;51982;51.042;13.806;2022-09-09T17:04:22;22.12;74.75
65378;SHT31;51982;51.042;13.806;2022-09-09T17:06:50;22.13;74.63
65378;SHT31;51982;51.042;13.806;2022-09-09T17:09:16;22.17;74.35
65378;SHT31;51982;51.042;13.806;2022-09-09T17:11:41;22.19;74.33
65378;SHT31;51982;51.042;13.806;2022-09-09T17:14:09;22.15;74.63
65378;SHT31;51982;51.042;13.806;2022-09-09T17:16:36;22.13;74.76
65378;SHT31;51982;51.042;13.806;2022-09-09T17:19:03;22.06;74.89
65378;SHT31;51982;51.042;13.806;2022-09-09T17:21:29;22.02;74.83
65378;SHT31;51982;51.042;13.806;2022-09-09T17:23:56;21.91;75.07
65378;SHT31;51982;51.042;13.806;2022-09-09T17:26:28;21.81;75.18
65378;SHT31;51982;51.042;13.806;2022-09-09T17:28:54;21.75;75.35
65378;SHT31;51982;51.042;13.806;2022-09-09T17:31:20;21.71;75.54
65378;SHT31;51982;51.042;13.806;2022-09-09T17:33:48;21.61;75.73
65378;SHT31;51982;51.042;13.806;2022-09-09T17:36:19;21.55;75.89
65378;SHT31;51982;51.042;13.806;2022-09-09T17:38:45;21.52;75.96
65378;SHT31;51982;51.042;13.806;2022-09-09T17:41:17;21.45;76.17
65378;SHT31;51982;51.042;13.806;2022-09-09T17:43:43;21.41;76.28
65378;SHT31;51982;51.042;13.806;2022-09-09T17:46:11;21.33;76.36
65378;SHT31;51982;51.042;13.806;2022-09-09T17:48:37;21.26;76.54
65378;SHT31;51982;51.042;13.806;2022-09-09T17:51:06;21.21;76.63
65378;SHT31;51982;51.042;13.806;2022-09-09T17:53:38;21.17;76.78